createdAt,value
2023-05-21T00:01:28.486Z,14.75
2023-05-21T00:03:58.970Z,14.25
2023-05-21T00:06:29.750Z,19.25
2023-05-21T00:09:00.177Z,18.00
2023-05-21T00:11:32.021Z,21.25
2023-05-21T00:14:02.499Z,18.00
2023-05-21T00:16:33.389Z,23.00
2023-05-21T00:19:03.784Z,24.00
2023-05-21T00:21:34.150Z,24.00
2023-05-21T00:24:06.788Z,20.75
2023-05-21T00:26:37.005Z,23.00
2023-05-21T00:29:07.387Z,24.00
2023-05-21T00:31:37.876Z,22.25
2023-05-21T00:34:08.285Z,22.25
2023-05-21T00:36:38.858Z,17.00
2023-05-21T00:39:09.217Z,19.25
2023-05-21T00:41:39.700Z,15.75
2023-05-21T00:44:10.346Z,15.25
2023-05-21T00:46:41.493Z,15.00
2023-05-21T00:49:17.963Z,14.00
2023-05-21T00:51:48.925Z,13.50
2023-05-21T00:54:19.647Z,12.00
2023-05-21T00:56:51.386Z,14.00
2023-05-21T00:59:21.864Z,12.75
2023-05-21T01:01:53.430Z,11.75
2023-05-21T01:04:26.919Z,11.75
2023-05-21T01:06:57.316Z,12.00
2023-05-21T01:09:28.592Z,12.25
2023-05-21T01:11:59.662Z,13.00
2023-05-21T01:14:31.061Z,12.75
2023-05-21T01:17:02.527Z,14.00
2023-05-21T01:19:33.822Z,14.25
2023-05-21T01:22:08.499Z,11.25
2023-05-21T01:24:39.004Z,11.00
2023-05-21T01:27:09.208Z,10.00
2023-05-21T01:29:39.551Z,12.75
2023-05-21T01:32:28.367Z,12.25
2023-05-21T01:35:20.238Z,13.00
2023-05-21T01:37:53.684Z,12.25
2023-05-21T01:40:42.074Z,13.25
2023-05-21T01:43:14.431Z,13.25
2023-05-21T01:45:46.714Z,13.00
2023-05-21T01:48:38.200Z,11.25
2023-05-21T01:51:08.846Z,12.25
2023-05-21T01:53:39.442Z,11.50
2023-05-21T01:56:09.831Z,12.00
2023-05-21T01:58:40.803Z,13.00
2023-05-21T02:01:11.206Z,12.25
2023-05-21T02:03:41.836Z,12.00
2023-05-21T02:06:12.200Z,12.25
2023-05-21T02:08:42.590Z,13.00
2023-05-21T02:11:13.074Z,12.00
2023-05-21T02:13:43.542Z,11.75
2023-05-21T02:16:13.997Z,10.50
2023-05-21T02:18:44.436Z,10.00
2023-05-21T02:21:14.721Z,10.50
2023-05-21T02:23:45.290Z,10.50
2023-05-21T02:26:15.603Z,10.75
2023-05-21T02:28:45.898Z,12.75
2023-05-21T02:31:16.279Z,11.00
2023-05-21T02:33:47.388Z,10.25
2023-05-21T02:36:17.984Z,12.25
2023-05-21T02:38:48.210Z,11.75
2023-05-21T02:41:18.575Z,11.75
2023-05-21T02:43:49.195Z,9.75
2023-05-21T02:46:19.559Z,10.75
2023-05-21T02:48:50.138Z,11.20
2023-05-21T02:51:20.507Z,10.50
2023-05-21T02:53:50.934Z,9.00
2023-05-21T02:56:21.433Z,10.00
2023-05-21T02:58:52.035Z,12.25
2023-05-21T03:01:22.377Z,10.50
2023-05-21T03:03:52.646Z,14.75
2023-05-21T03:06:22.960Z,10.25
2023-05-21T03:08:53.509Z,12.80
2023-05-21T03:11:23.811Z,10.60
2023-05-21T03:13:54.461Z,13.00
2023-05-21T03:16:24.869Z,12.50
2023-05-21T03:18:55.662Z,9.80
2023-05-21T03:21:26.364Z,10.20
2023-05-21T03:23:57.088Z,10.60
2023-05-21T03:26:29.282Z,10.60
2023-05-21T03:29:00.200Z,10.80
2023-05-21T03:31:30.616Z,12.00
2023-05-21T03:34:00.913Z,11.00
2023-05-21T03:36:31.561Z,9.60
2023-05-21T03:39:01.908Z,10.60
2023-05-21T03:41:32.710Z,10.80
2023-05-21T03:44:03.007Z,10.80
2023-05-21T03:46:33.934Z,8.80
2023-05-21T03:49:04.402Z,11.00
2023-05-21T03:51:35.090Z,9.40
2023-05-21T03:54:05.423Z,11.20
2023-05-21T03:56:35.739Z,11.00
2023-05-21T03:59:06.124Z,10.60
2023-05-21T04:01:36.610Z,10.80
2023-05-21T04:04:07.131Z,10.75
2023-05-21T04:06:38.426Z,10.60
2023-05-21T04:09:08.791Z,10.80
2023-05-21T04:11:39.789Z,10.80
2023-05-21T04:14:10.393Z,9.60
2023-05-21T04:16:40.814Z,12.80
2023-05-21T04:19:11.251Z,7.40
2023-05-21T04:21:41.826Z,11.60
2023-05-21T04:24:12.126Z,9.60
2023-05-21T04:26:42.548Z,8.00
2023-05-21T04:29:12.947Z,9.20
2023-05-21T04:31:45.859Z,9.40
2023-05-21T04:34:16.718Z,12.00
2023-05-21T04:36:47.696Z,12.00
2023-05-21T04:39:18.012Z,10.60
2023-05-21T04:41:48.355Z,12.80
2023-05-21T04:44:22.060Z,11.60
2023-05-21T04:46:52.310Z,8.40
2023-05-21T04:49:23.019Z,12.20
2023-05-21T04:52:00.816Z,9.20
2023-05-21T04:54:32.714Z,12.80
2023-05-21T04:57:17.032Z,11.40
2023-05-21T05:00:12.392Z,9.40
2023-05-21T05:02:43.390Z,13.20
2023-05-21T05:05:13.921Z,10.80
2023-05-21T05:07:44.736Z,11.80
2023-05-21T05:10:15.194Z,12.40
2023-05-21T05:12:45.617Z,10.80
2023-05-21T05:15:16.090Z,10.20
2023-05-21T05:17:49.502Z,10.40
2023-05-21T05:20:19.751Z,10.00
2023-05-21T05:22:50.125Z,7.80
2023-05-21T05:25:20.816Z,10.40
2023-05-21T05:27:51.258Z,11.80
2023-05-21T05:30:21.811Z,11.00
2023-05-21T05:32:52.364Z,11.00
2023-05-21T05:35:22.954Z,10.80
2023-05-21T05:37:53.182Z,11.40
2023-05-21T05:40:23.506Z,29.50
2023-05-21T05:42:54.041Z,11.20
2023-05-21T05:45:25.914Z,12.60
2023-05-21T05:47:56.831Z,13.40
2023-05-21T05:50:28.465Z,14.00
2023-05-21T05:53:03.233Z,14.00
2023-05-21T05:55:40.941Z,10.20
2023-05-21T05:58:11.221Z,14.80
2023-05-21T06:04:06.076Z,9.80
2023-05-21T06:06:36.581Z,7.20
2023-05-21T06:09:07.072Z,11.00
2023-05-21T06:11:40.574Z,10.80
2023-05-21T06:14:10.887Z,11.60
2023-05-21T06:16:41.286Z,9.80
2023-05-21T06:19:11.772Z,11.60
2023-05-21T06:21:42.169Z,0.80
2023-05-21T06:24:14.805Z,6.80
2023-05-21T06:26:45.028Z,11.20
2023-05-21T06:29:15.645Z,12.80
2023-05-21T06:31:46.422Z,13.80
2023-05-21T06:34:20.415Z,14.40
2023-05-21T06:36:51.792Z,11.00
2023-05-21T06:39:22.233Z,11.20
2023-05-21T06:41:52.693Z,10.80
2023-05-21T06:44:23.294Z,11.20
2023-05-21T06:46:53.746Z,11.40
2023-05-21T06:49:30.266Z,10.60
2023-05-21T06:52:04.759Z,10.20
2023-05-21T06:57:58.842Z,14.60
2023-05-21T07:00:37.195Z,14.80
2023-05-21T07:03:19.361Z,16.60
2023-05-21T07:05:49.400Z,15.00
2023-05-21T07:08:22.578Z,14.00
2023-05-21T07:10:53.053Z,16.40
2023-05-21T07:13:26.185Z,17.40
2023-05-21T07:15:56.543Z,14.20
2023-05-21T07:18:27.039Z,14.40
2023-05-21T07:20:57.450Z,15.80
2023-05-21T07:23:31.507Z,16.80
2023-05-21T07:26:02.193Z,15.00
2023-05-21T07:28:33.088Z,13.60
2023-05-21T07:31:03.505Z,12.20
2023-05-21T07:33:34.615Z,11.60
2023-05-21T07:36:05.690Z,12.00
2023-05-21T07:38:37.175Z,12.40
2023-05-21T07:41:07.878Z,11.00
2023-05-21T07:43:38.637Z,10.60
2023-05-21T07:46:08.994Z,11.60
2023-05-21T07:48:39.424Z,11.80
2023-05-21T07:51:11.448Z,13.00
2023-05-21T07:53:42.050Z,11.80
2023-05-21T07:56:12.393Z,13.20
2023-05-21T07:58:42.740Z,14.60
2023-05-21T08:01:17.776Z,16.60
2023-05-21T08:03:48.266Z,16.40
2023-05-21T08:06:18.942Z,15.80
2023-05-21T08:08:49.165Z,14.20
2023-05-21T08:11:19.631Z,12.60
2023-05-21T08:13:50.153Z,10.00
2023-05-21T08:16:21.063Z,10.40
2023-05-21T08:18:51.716Z,7.60
2023-05-21T08:21:22.845Z,11.40
2023-05-21T08:23:56.365Z,10.00
2023-05-21T08:26:27.694Z,11.20
2023-05-21T08:28:58.020Z,9.00
2023-05-21T08:31:28.428Z,8.40
2023-05-21T08:33:58.981Z,10.00
2023-05-21T08:36:29.447Z,11.20
2023-05-21T08:38:59.696Z,9.80
2023-05-21T08:41:33.811Z,11.20
2023-05-21T08:44:06.771Z,7.80
2023-05-21T08:46:38.764Z,10.80
2023-05-21T08:49:12.292Z,10.80
2023-05-21T08:51:46.036Z,9.40
2023-05-21T08:54:16.614Z,11.00
2023-05-21T08:56:47.949Z,10.20
2023-05-21T08:59:20.664Z,9.00
2023-05-21T09:01:52.450Z,9.00
2023-05-21T09:04:24.277Z,10.40
2023-05-21T09:06:55.773Z,12.20
2023-05-21T09:12:14.586Z,12.80
2023-05-21T09:14:46.620Z,11.40
2023-05-21T09:17:17.347Z,9.80
2023-05-21T09:20:07.247Z,11.80
2023-05-21T09:22:41.944Z,10.40
2023-05-21T09:25:18.246Z,11.20
2023-05-21T09:27:50.550Z,10.80
2023-05-21T09:30:25.288Z,10.00
2023-05-21T09:32:58.885Z,11.00
2023-05-21T09:35:29.390Z,11.60
2023-05-21T09:37:59.896Z,11.20
2023-05-21T09:40:30.399Z,13.40
2023-05-21T09:43:00.895Z,9.80
2023-05-21T09:45:31.634Z,14.20
2023-05-21T09:48:03.919Z,15.40
2023-05-21T09:50:36.310Z,17.20
2023-05-21T09:53:10.043Z,18.40
2023-05-21T09:55:41.130Z,18.60
2023-05-21T09:58:11.792Z,18.00
2023-05-21T10:00:43.793Z,17.20
2023-05-21T10:03:16.623Z,15.00
2023-05-21T10:05:47.126Z,15.60
2023-05-21T10:08:21.926Z,14.40
2023-05-21T10:10:52.182Z,10.40
2023-05-21T10:13:26.011Z,14.00
2023-05-21T10:16:20.031Z,16.40
2023-05-21T10:18:51.115Z,18.40
2023-05-21T10:21:22.806Z,20.00
2023-05-21T10:23:55.890Z,19.00
2023-05-21T10:26:28.206Z,19.20
2023-05-21T10:28:59.094Z,20.40
2023-05-21T10:31:34.263Z,18.20
2023-05-21T10:34:14.602Z,15.00
2023-05-21T10:36:46.443Z,14.80
2023-05-21T10:39:18.987Z,8.60
2023-05-21T10:42:08.843Z,12.20
2023-05-21T10:45:04.490Z,12.60
2023-05-21T10:48:01.709Z,12.40
2023-05-21T10:50:58.957Z,13.20
2023-05-21T10:53:41.441Z,18.40
2023-05-21T10:56:31.098Z,18.00
2023-05-21T10:59:16.985Z,19.60
2023-05-21T11:02:06.044Z,21.20
2023-05-21T11:04:36.963Z,21.00
2023-05-21T11:07:07.421Z,19.00
2023-05-21T11:09:39.028Z,18.60
2023-05-21T11:12:09.941Z,14.60
2023-05-21T11:14:42.206Z,14.60
2023-05-21T11:17:15.144Z,12.40
2023-05-21T11:19:47.342Z,13.80
2023-05-21T11:22:25.550Z,13.80
2023-05-21T11:25:00.257Z,12.00
2023-05-21T11:27:38.699Z,14.00
2023-05-21T11:30:17.706Z,11.40
2023-05-21T11:33:11.254Z,12.60
2023-05-21T11:35:57.106Z,14.60
2023-05-21T11:38:30.620Z,14.00
2023-05-21T11:44:23.520Z,13.80
2023-05-21T11:46:56.183Z,14.00
2023-05-21T11:49:28.935Z,12.00
2023-05-21T11:52:01.522Z,12.60
2023-05-21T11:54:33.582Z,15.00
2023-05-21T11:59:56.196Z,12.40
2023-05-21T12:02:34.408Z,15.00
2023-05-21T12:05:08.526Z,14.00
2023-05-21T12:10:19.925Z,14.20
2023-05-21T12:13:07.349Z,15.20
2023-05-21T12:13:47.783Z,12.80
2023-05-21T12:15:41.885Z,11.60
2023-05-21T12:18:16.362Z,13.80
2023-05-21T12:20:57.898Z,12.60
2023-05-21T12:23:48.597Z,9.60
2023-05-21T12:26:21.489Z,14.40
2023-05-21T12:29:03.348Z,14.40
2023-05-21T12:31:33.835Z,10.00
2023-05-21T12:34:32.682Z,13.00
2023-05-21T12:37:17.178Z,12.00
2023-05-21T12:40:05.063Z,13.00
2023-05-21T12:42:41.154Z,12.40
2023-05-21T12:45:13.704Z,12.80
2023-05-21T12:47:47.044Z,12.00
2023-05-21T12:50:20.600Z,10.60
2023-05-21T12:53:02.220Z,11.20
2023-05-21T12:55:33.224Z,12.40
2023-05-21T12:58:10.789Z,13.80
2023-05-21T13:00:54.091Z,11.60
2023-05-21T13:03:24.508Z,11.20
2023-05-21T13:06:13.911Z,13.20
2023-05-21T13:08:51.120Z,11.80
2023-05-21T13:11:24.594Z,12.40
2023-05-21T13:13:55.010Z,12.00
2023-05-21T13:16:32.101Z,10.00
2023-05-21T13:19:13.304Z,11.00
2023-05-21T13:21:43.738Z,10.00
2023-05-21T13:24:16.834Z,9.60
2023-05-21T13:26:56.715Z,9.20
2023-05-21T13:29:28.030Z,8.00
2023-05-21T13:31:58.426Z,8.80
2023-05-21T13:34:31.739Z,11.00
2023-05-21T13:37:02.853Z,11.80
2023-05-21T13:39:34.584Z,12.00
2023-05-21T13:42:05.161Z,8.20
2023-05-21T13:44:39.398Z,11.20
2023-05-21T13:47:11.407Z,10.40
2023-05-21T13:49:42.449Z,13.40
2023-05-21T13:52:13.436Z,13.80
2023-05-21T13:54:44.432Z,10.80
2023-05-21T14:00:08.288Z,15.40
2023-05-21T14:02:39.025Z,14.20
2023-05-21T14:05:11.695Z,11.60
2023-05-21T14:07:42.384Z,11.00
2023-05-21T14:10:13.315Z,15.00
2023-05-21T14:12:44.554Z,13.20
2023-05-21T14:15:15.177Z,10.80
2023-05-21T14:17:48.963Z,15.00
2023-05-21T14:20:19.447Z,11.80
2023-05-21T14:22:57.313Z,11.80
2023-05-21T14:26:13.212Z,10.60
2023-05-21T14:28:33.322Z,11.80
2023-05-21T14:31:08.499Z,11.20
2023-05-21T14:33:39.462Z,12.60
2023-05-21T14:36:09.906Z,12.00
2023-05-21T14:38:40.417Z,11.60
2023-05-21T14:41:11.273Z,13.00
2023-05-21T14:44:07.371Z,14.20
2023-05-21T14:46:44.119Z,16.60
2023-05-21T14:49:29.416Z,12.80
2023-05-21T14:52:08.504Z,10.60
2023-05-21T15:08:13.426Z,10.00
2023-05-21T15:10:45.556Z,11.60
2023-05-21T15:13:16.209Z,8.40
2023-05-21T15:15:46.728Z,10.60
2023-05-21T15:18:47.641Z,9.00
2023-05-21T15:21:18.749Z,9.60
2023-05-21T15:23:50.887Z,9.60
2023-05-21T15:40:26.876Z,11.00
2023-05-21T15:43:23.610Z,8.00
2023-05-21T15:46:02.630Z,15.40
2023-05-21T15:51:30.440Z,9.60
2023-05-21T15:54:00.776Z,43.50
2023-05-21T15:59:45.758Z,20.20
2023-05-21T16:02:24.793Z,8.60
2023-05-21T16:05:36.441Z,16.60
2023-05-21T16:08:12.329Z,16.20
2023-05-21T16:13:28.732Z,10.60
2023-05-21T16:16:05.317Z,11.60
2023-05-21T16:31:59.364Z,10.20
2023-05-21T16:34:29.742Z,11.60
2023-05-21T16:37:07.505Z,9.80
2023-05-21T16:39:45.620Z,40.25
2023-05-21T16:42:19.046Z,28.75
2023-05-21T16:44:53.182Z,16.40
2023-05-21T16:47:29.297Z,9.60
2023-05-21T16:49:59.772Z,11.60
2023-05-21T16:52:30.274Z,9.60
2023-05-21T16:55:09.377Z,10.00
2023-05-21T16:57:55.084Z,9.00
2023-05-21T17:00:29.320Z,9.00
2023-05-21T17:03:07.868Z,7.00
2023-05-21T17:05:51.127Z,7.00
2023-05-21T17:08:23.607Z,7.00
2023-05-21T17:17:12.550Z,9.60
2023-05-21T17:19:51.927Z,4.60
2023-05-21T17:22:33.743Z,8.60
2023-05-21T17:25:07.193Z,8.40
2023-05-21T17:27:40.585Z,10.80
2023-05-21T17:30:57.888Z,10.00
2023-05-21T17:33:13.758Z,8.60
2023-05-21T17:35:50.528Z,7.20
2023-05-21T17:38:24.242Z,9.20
2023-05-21T17:41:12.369Z,8.00
2023-05-21T17:43:45.181Z,8.20
2023-05-21T17:46:17.742Z,9.00
2023-05-21T17:48:56.407Z,8.20
2023-05-21T17:51:31.681Z,7.80
2023-05-21T17:54:02.176Z,9.20
2023-05-21T17:56:40.056Z,10.00
2023-05-21T17:59:13.467Z,7.40
2023-05-21T18:04:45.401Z,9.00
2023-05-21T18:07:29.941Z,9.80
2023-05-21T18:09:56.352Z,6.40
2023-05-21T18:12:30.822Z,11.40
2023-05-21T18:15:01.312Z,9.80
2023-05-21T18:17:31.875Z,9.20
2023-05-21T18:20:03.902Z,8.60
2023-05-21T18:22:34.781Z,10.20
2023-05-21T18:25:07.187Z,10.80
2023-05-21T18:27:37.676Z,11.40
2023-05-21T18:30:11.840Z,11.60
2023-05-21T18:32:44.530Z,9.60
2023-05-21T18:35:16.863Z,7.00
2023-05-21T18:37:51.288Z,10.00
2023-05-21T18:40:22.191Z,10.00
2023-05-21T18:43:00.753Z,9.60
2023-05-21T18:45:34.438Z,10.60
2023-05-21T18:48:05.955Z,10.60
2023-05-21T18:50:36.567Z,10.40
2023-05-21T18:53:08.382Z,10.80
2023-05-21T18:55:41.290Z,9.00
2023-05-21T18:58:13.870Z,11.20
2023-05-21T19:00:44.218Z,9.20
2023-05-21T19:03:15.316Z,12.20
2023-05-21T19:05:47.548Z,12.60
2023-05-21T19:08:19.409Z,12.20
2023-05-21T19:11:14.923Z,20.50
2023-05-21T19:13:48.447Z,12.20
2023-05-21T19:16:33.635Z,11.60
2023-05-21T19:19:14.540Z,9.40
2023-05-21T19:21:50.870Z,14.40
2023-05-21T19:24:34.941Z,14.40
2023-05-21T19:27:16.893Z,12.80
2023-05-21T19:30:00.054Z,17.50
2023-05-21T19:32:46.536Z,19.00
2023-05-21T19:39:29.461Z,18.40
2023-05-21T19:41:56.578Z,17.80
2023-05-21T19:58:08.988Z,9.60
2023-05-21T20:01:57.772Z,9.60
2023-05-21T20:03:25.381Z,10.20
2023-05-21T20:05:57.597Z,9.20
2023-05-21T20:08:29.580Z,7.80
2023-05-21T20:11:01.258Z,10.40
2023-05-21T20:13:34.339Z,11.20
2023-05-21T20:16:13.585Z,9.00
2023-05-21T20:18:51.208Z,9.80
2023-05-21T20:21:23.663Z,9.20
2023-05-21T20:23:54.432Z,9.20
2023-05-21T20:26:24.789Z,8.60
2023-05-21T20:29:00.334Z,9.20
2023-05-21T20:31:46.024Z,10.40
2023-05-21T20:34:11.916Z,11.60
2023-05-21T20:36:45.483Z,10.00
2023-05-21T20:39:17.453Z,10.60
2023-05-21T20:41:49.290Z,10.00
2023-05-21T20:44:21.102Z,9.60
2023-05-21T20:46:55.058Z,7.00
2023-05-21T20:49:28.180Z,10.00
2023-05-21T20:51:58.614Z,9.20
2023-05-21T20:54:29.561Z,8.80
2023-05-21T20:56:59.940Z,10.00
2023-05-21T20:59:30.153Z,17.75
2023-05-21T21:02:00.875Z,22.25
2023-05-21T21:04:31.979Z,19.75
2023-05-21T21:07:02.306Z,19.75
2023-05-21T21:09:38.347Z,19.00
2023-05-21T21:12:24.604Z,14.40
2023-05-21T21:14:43.606Z,16.00
2023-05-21T21:17:14.038Z,15.00
2023-05-21T21:19:44.478Z,12.20
2023-05-21T21:22:16.327Z,9.20
2023-05-21T21:24:47.730Z,11.80
2023-05-21T21:27:19.676Z,9.40
2023-05-21T21:29:50.133Z,11.80
2023-05-21T21:32:22.938Z,8.20
2023-05-21T21:34:53.551Z,11.00
2023-05-21T21:37:23.841Z,8.60
2023-05-21T21:39:54.198Z,9.60
2023-05-21T21:42:24.867Z,10.20
2023-05-21T21:44:55.302Z,7.60
2023-05-21T21:47:26.862Z,9.40
2023-05-21T21:49:59.184Z,11.20
2023-05-21T21:52:29.908Z,10.40
2023-05-21T21:55:00.254Z,9.40
2023-05-21T21:57:30.969Z,11.80
2023-05-21T22:00:02.546Z,11.20
2023-05-21T22:02:35.128Z,10.80
2023-05-21T22:05:06.812Z,12.80
2023-05-21T22:07:37.586Z,10.60
2023-05-21T22:10:08.351Z,11.80
2023-05-21T22:12:41.596Z,11.40
2023-05-21T22:15:21.137Z,10.20
2023-05-21T22:17:51.687Z,12.75
2023-05-21T22:20:23.284Z,10.40
2023-05-21T22:22:55.382Z,10.60
2023-05-21T22:25:26.374Z,14.00
2023-05-21T22:27:56.631Z,16.50
2023-05-21T22:30:26.857Z,19.50
2023-05-21T22:32:57.550Z,18.75
2023-05-21T22:35:27.988Z,18.50
2023-05-21T22:37:58.375Z,13.25
2023-05-21T22:40:28.842Z,15.40
2023-05-21T22:42:59.935Z,16.00
2023-05-21T22:45:31.139Z,20.00
2023-05-21T22:48:01.520Z,19.25
2023-05-21T22:50:33.385Z,20.00
2023-05-21T22:53:03.934Z,19.75
2023-05-21T22:55:36.490Z,17.25
2023-05-21T22:58:06.859Z,15.75
2023-05-21T23:00:37.499Z,12.00
2023-05-21T23:03:09.754Z,11.20
2023-05-21T23:05:40.267Z,10.50
2023-05-21T23:08:10.688Z,9.20
2023-05-21T23:10:42.435Z,10.00
2023-05-21T23:13:15.559Z,9.60
2023-05-21T23:15:45.961Z,8.00
2023-05-21T23:18:16.206Z,6.00
2023-05-21T23:20:46.792Z,10.80
2023-05-21T23:23:17.271Z,9.00
2023-05-21T23:25:47.605Z,9.60
2023-05-21T23:28:19.976Z,9.00
2023-05-21T23:30:50.065Z,10.20
2023-05-21T23:33:20.534Z,12.50
2023-05-21T23:35:51.010Z,10.00
2023-05-21T23:38:21.350Z,9.00
2023-05-21T23:40:52.053Z,11.60
2023-05-21T23:43:22.428Z,10.20
2023-05-21T23:45:52.746Z,10.75
2023-05-21T23:48:23.115Z,10.20
2023-05-21T23:50:53.519Z,10.80
2023-05-21T23:53:24.627Z,10.80
2023-05-21T23:55:57.550Z,9.60
2023-05-21T23:58:27.945Z,9.60
